sensor_id;sensor_type;location;lat;lon;timestamp;P1;durP1;ratioP1;P2;durP2;ratioP2
56413;SDS011;42318;48.452;19.526;2023-04-30T00:06:45;4.28;;;2.63;;
56413;SDS011;42318;48.452;19.526;2023-04-30T00:14:15;3.38;;;2.20;;
56413;SDS011;42318;48.452;19.526;2023-04-30T00:21:46;3.15;;;2.20;;
56413;SDS011;42318;48.452;19.526;2023-04-30T00:29:17;3.22;;;2.22;;
56413;SDS011;42318;48.452;19.526;2023-04-30T00:36:48;2.70;;;2.00;;
56413;SDS011;42318;48.452;19.526;2023-04-30T00:44:19;3.22;;;2.20;;
56413;SDS011;42318;48.452;19.526;2023-04-30T00:51:50;2.50;;;1.92;;
56413;SDS011;42318;48.452;19.526;2023-04-30T00:59:21;2.97;;;2.15;;
56413;SDS011;42318;48.452;19.526;2023-04-30T01:06:52;2.75;;;2.10;;
56413;SDS011;42318;48.452;19.526;2023-04-30T01:14:27;3.35;;;2.30;;
56413;SDS011;42318;48.452;19.526;2023-04-30T01:22:12;3.28;;;2.35;;
56413;SDS011;42318;48.452;19.526;2023-04-30T01:29:55;2.92;;;2.17;;
56413;SDS011;42318;48.452;19.526;2023-04-30T01:45:31;4.03;;;2.08;;
56413;SDS011;42318;48.452;19.526;2023-04-30T01:53:12;3.17;;;2.30;;
56413;SDS011;42318;48.452;19.526;2023-04-30T02:01:01;3.05;;;2.30;;
56413;SDS011;42318;48.452;19.526;2023-04-30T02:08:32;3.35;;;2.22;;
56413;SDS011;42318;48.452;19.526;2023-04-30T02:16:03;2.80;;;1.85;;
56413;SDS011;42318;48.452;19.526;2023-04-30T02:23:34;3.30;;;2.10;;
56413;SDS011;42318;48.452;19.526;2023-04-30T02:31:05;2.58;;;2.15;;
56413;SDS011;42318;48.452;19.526;2023-04-30T02:38:36;2.75;;;1.90;;
56413;SDS011;42318;48.452;19.526;2023-04-30T02:46:07;2.58;;;1.85;;
56413;SDS011;42318;48.452;19.526;2023-04-30T02:53:37;2.95;;;2.00;;
56413;SDS011;42318;48.452;19.526;2023-04-30T03:01:08;3.42;;;1.70;;
56413;SDS011;42318;48.452;19.526;2023-04-30T03:08:39;3.00;;;2.08;;
56413;SDS011;42318;48.452;19.526;2023-04-30T03:16:10;3.20;;;2.10;;
56413;SDS011;42318;48.452;19.526;2023-04-30T03:23:40;3.03;;;2.00;;
56413;SDS011;42318;48.452;19.526;2023-04-30T03:31:11;2.75;;;1.90;;
56413;SDS011;42318;48.452;19.526;2023-04-30T03:38:42;2.47;;;1.70;;
56413;SDS011;42318;48.452;19.526;2023-04-30T03:46:13;3.05;;;2.00;;
56413;SDS011;42318;48.452;19.526;2023-04-30T03:53:43;2.45;;;2.17;;
56413;SDS011;42318;48.452;19.526;2023-04-30T04:01:14;3.65;;;2.50;;
56413;SDS011;42318;48.452;19.526;2023-04-30T04:08:45;2.33;;;1.80;;
56413;SDS011;42318;48.452;19.526;2023-04-30T04:16:16;2.70;;;2.25;;
56413;SDS011;42318;48.452;19.526;2023-04-30T04:23:47;2.75;;;2.00;;
56413;SDS011;42318;48.452;19.526;2023-04-30T04:31:17;2.60;;;1.98;;
56413;SDS011;42318;48.452;19.526;2023-04-30T04:38:52;3.05;;;2.05;;
56413;SDS011;42318;48.452;19.526;2023-04-30T04:46:23;3.25;;;2.20;;
56413;SDS011;42318;48.452;19.526;2023-04-30T04:53:54;3.85;;;2.72;;
56413;SDS011;42318;48.452;19.526;2023-04-30T05:01:25;2.40;;;2.00;;
56413;SDS011;42318;48.452;19.526;2023-04-30T05:08:56;2.83;;;2.03;;
56413;SDS011;42318;48.452;19.526;2023-04-30T05:16:27;2.55;;;1.90;;
56413;SDS011;42318;48.452;19.526;2023-04-30T05:23:58;2.53;;;1.92;;
56413;SDS011;42318;48.452;19.526;2023-04-30T05:31:29;3.40;;;2.28;;
56413;SDS011;42318;48.452;19.526;2023-04-30T05:39:01;3.80;;;2.35;;
56413;SDS011;42318;48.452;19.526;2023-04-30T05:46:32;2.78;;;1.90;;
56413;SDS011;42318;48.452;19.526;2023-04-30T05:54:04;3.05;;;2.22;;
56413;SDS011;42318;48.452;19.526;2023-04-30T06:01:35;3.35;;;2.28;;
56413;SDS011;42318;48.452;19.526;2023-04-30T06:09:06;3.75;;;2.28;;
56413;SDS011;42318;48.452;19.526;2023-04-30T06:16:37;2.80;;;1.90;;
56413;SDS011;42318;48.452;19.526;2023-04-30T06:24:08;2.50;;;1.85;;
56413;SDS011;42318;48.452;19.526;2023-04-30T06:31:38;2.63;;;2.10;;
56413;SDS011;42318;48.452;19.526;2023-04-30T06:39:10;2.30;;;2.10;;
56413;SDS011;42318;48.452;19.526;2023-04-30T06:46:44;2.63;;;2.35;;
56413;SDS011;42318;48.452;19.526;2023-04-30T06:54:15;2.78;;;2.10;;
56413;SDS011;42318;48.452;19.526;2023-04-30T07:01:45;2.95;;;1.98;;
56413;SDS011;42318;48.452;19.526;2023-04-30T07:09:16;3.08;;;2.20;;
56413;SDS011;42318;48.452;19.526;2023-04-30T07:16:50;3.75;;;2.58;;
56413;SDS011;42318;48.452;19.526;2023-04-30T07:24:21;2.85;;;2.40;;
56413;SDS011;42318;48.452;19.526;2023-04-30T07:31:51;2.47;;;2.00;;
56413;SDS011;42318;48.452;19.526;2023-04-30T07:39:22;3.40;;;2.00;;
56413;SDS011;42318;48.452;19.526;2023-04-30T07:46:53;3.13;;;2.28;;
56413;SDS011;42318;48.452;19.526;2023-04-30T07:54:24;4.65;;;2.00;;
56413;SDS011;42318;48.452;19.526;2023-04-30T08:01:55;2.85;;;2.00;;
56413;SDS011;42318;48.452;19.526;2023-04-30T08:09:26;4.50;;;2.20;;
56413;SDS011;42318;48.452;19.526;2023-04-30T08:16:56;3.67;;;2.17;;
56413;SDS011;42318;48.452;19.526;2023-04-30T08:24:29;3.10;;;2.08;;
56413;SDS011;42318;48.452;19.526;2023-04-30T08:32:01;2.28;;;1.70;;
56413;SDS011;42318;48.452;19.526;2023-04-30T08:39:33;2.78;;;2.00;;
56413;SDS011;42318;48.452;19.526;2023-04-30T08:47:03;4.07;;;2.20;;
56413;SDS011;42318;48.452;19.526;2023-04-30T08:54:37;2.13;;;1.73;;
56413;SDS011;42318;48.452;19.526;2023-04-30T09:02:08;3.92;;;2.38;;
56413;SDS011;42318;48.452;19.526;2023-04-30T09:09:39;4.90;;;2.92;;
56413;SDS011;42318;48.452;19.526;2023-04-30T09:17:11;4.50;;;1.90;;
56413;SDS011;42318;48.452;19.526;2023-04-30T09:24:51;3.22;;;2.30;;
56413;SDS011;42318;48.452;19.526;2023-04-30T09:32:23;3.10;;;2.13;;
56413;SDS011;42318;48.452;19.526;2023-04-30T09:39:54;3.97;;;1.83;;
56413;SDS011;42318;48.452;19.526;2023-04-30T09:47:28;2.17;;;1.85;;
56413;SDS011;42318;48.452;19.526;2023-04-30T09:54:59;2.30;;;1.92;;
56413;SDS011;42318;48.452;19.526;2023-04-30T10:02:30;2.80;;;2.15;;
56413;SDS011;42318;48.452;19.526;2023-04-30T10:10:08;3.73;;;2.10;;
56413;SDS011;42318;48.452;19.526;2023-04-30T10:17:40;2.47;;;1.80;;
56413;SDS011;42318;48.452;19.526;2023-04-30T10:25:11;2.53;;;1.93;;
56413;SDS011;42318;48.452;19.526;2023-04-30T10:32:45;4.53;;;2.05;;
56413;SDS011;42318;48.452;19.526;2023-04-30T10:40:25;2.00;;;1.70;;
56413;SDS011;42318;48.452;19.526;2023-04-30T10:47:56;2.35;;;1.70;;
56413;SDS011;42318;48.452;19.526;2023-04-30T10:55:27;2.38;;;1.85;;
56413;SDS011;42318;48.452;19.526;2023-04-30T11:03:03;5.22;;;2.33;;
56413;SDS011;42318;48.452;19.526;2023-04-30T11:10:34;2.90;;;1.85;;
56413;SDS011;42318;48.452;19.526;2023-04-30T11:18:05;3.67;;;2.30;;
56413;SDS011;42318;48.452;19.526;2023-04-30T11:25:39;2.80;;;2.35;;
56413;SDS011;42318;48.452;19.526;2023-04-30T11:33:14;4.55;;;2.60;;
56413;SDS011;42318;48.452;19.526;2023-04-30T11:40:45;3.30;;;2.42;;
56413;SDS011;42318;48.452;19.526;2023-04-30T11:48:18;4.07;;;2.30;;
56413;SDS011;42318;48.452;19.526;2023-04-30T11:55:49;2.97;;;2.20;;
56413;SDS011;42318;48.452;19.526;2023-04-30T12:03:22;6.82;;;2.25;;
56413;SDS011;42318;48.452;19.526;2023-04-30T12:10:52;3.10;;;2.42;;
56413;SDS011;42318;48.452;19.526;2023-04-30T12:18:23;3.08;;;2.00;;
56413;SDS011;42318;48.452;19.526;2023-04-30T12:25:58;2.50;;;2.03;;
56413;SDS011;42318;48.452;19.526;2023-04-30T12:33:29;4.03;;;1.98;;
56413;SDS011;42318;48.452;19.526;2023-04-30T12:41:03;2.73;;;2.10;;
56413;SDS011;42318;48.452;19.526;2023-04-30T12:48:42;2.47;;;2.13;;
56413;SDS011;42318;48.452;19.526;2023-04-30T12:56:16;2.13;;;1.60;;
56413;SDS011;42318;48.452;19.526;2023-04-30T13:03:47;5.25;;;1.83;;
56413;SDS011;42318;48.452;19.526;2023-04-30T13:11:18;2.88;;;2.03;;
56413;SDS011;42318;48.452;19.526;2023-04-30T13:18:49;2.13;;;1.70;;
56413;SDS011;42318;48.452;19.526;2023-04-30T13:26:20;3.08;;;2.00;;
56413;SDS011;42318;48.452;19.526;2023-04-30T13:41:24;2.38;;;1.88;;
56413;SDS011;42318;48.452;19.526;2023-04-30T13:48:55;3.35;;;1.95;;
56413;SDS011;42318;48.452;19.526;2023-04-30T13:56:26;2.20;;;1.65;;
56413;SDS011;42318;48.452;19.526;2023-04-30T14:03:57;2.10;;;1.75;;
56413;SDS011;42318;48.452;19.526;2023-04-30T14:11:28;2.20;;;1.55;;
56413;SDS011;42318;48.452;19.526;2023-04-30T14:18:59;2.47;;;1.92;;
56413;SDS011;42318;48.452;19.526;2023-04-30T14:26:29;2.88;;;1.65;;
56413;SDS011;42318;48.452;19.526;2023-04-30T14:34:00;5.13;;;1.55;;
56413;SDS011;42318;48.452;19.526;2023-04-30T14:41:35;3.20;;;1.63;;
56413;SDS011;42318;48.452;19.526;2023-04-30T14:49:06;4.05;;;1.88;;
56413;SDS011;42318;48.452;19.526;2023-04-30T14:56:37;2.95;;;1.80;;
56413;SDS011;42318;48.452;19.526;2023-04-30T15:04:08;2.97;;;1.73;;
56413;SDS011;42318;48.452;19.526;2023-04-30T15:11:39;3.20;;;2.10;;
56413;SDS011;42318;48.452;19.526;2023-04-30T15:19:10;3.50;;;1.70;;
56413;SDS011;42318;48.452;19.526;2023-04-30T15:26:41;2.40;;;1.75;;
56413;SDS011;42318;48.452;19.526;2023-04-30T15:34:11;3.13;;;1.75;;
56413;SDS011;42318;48.452;19.526;2023-04-30T15:41:42;2.42;;;1.60;;
56413;SDS011;42318;48.452;19.526;2023-04-30T15:49:14;3.88;;;2.10;;
56413;SDS011;42318;48.452;19.526;2023-04-30T15:56:46;4.13;;;1.58;;
56413;SDS011;42318;48.452;19.526;2023-04-30T16:04:17;2.67;;;1.47;;
56413;SDS011;42318;48.452;19.526;2023-04-30T16:11:47;2.08;;;1.50;;
56413;SDS011;42318;48.452;19.526;2023-04-30T16:19:18;2.33;;;1.65;;
56413;SDS011;42318;48.452;19.526;2023-04-30T16:26:49;2.58;;;1.45;;
56413;SDS011;42318;48.452;19.526;2023-04-30T16:34:20;1.95;;;1.27;;
56413;SDS011;42318;48.452;19.526;2023-04-30T16:41:51;3.58;;;1.50;;
56413;SDS011;42318;48.452;19.526;2023-04-30T16:49:22;2.85;;;1.70;;
56413;SDS011;42318;48.452;19.526;2023-04-30T16:56:53;2.53;;;1.63;;
56413;SDS011;42318;48.452;19.526;2023-04-30T17:04:24;1.80;;;1.48;;
56413;SDS011;42318;48.452;19.526;2023-04-30T17:11:55;2.97;;;1.77;;
56413;SDS011;42318;48.452;19.526;2023-04-30T17:19:26;2.35;;;1.27;;
56413;SDS011;42318;48.452;19.526;2023-04-30T17:26:57;2.22;;;1.38;;
56413;SDS011;42318;48.452;19.526;2023-04-30T17:34:30;2.45;;;1.65;;
56413;SDS011;42318;48.452;19.526;2023-04-30T17:42:01;1.23;;;1.05;;
56413;SDS011;42318;48.452;19.526;2023-04-30T17:49:33;1.67;;;1.37;;
56413;SDS011;42318;48.452;19.526;2023-04-30T17:57:03;4.70;;;1.60;;
56413;SDS011;42318;48.452;19.526;2023-04-30T18:04:34;1.92;;;1.50;;
56413;SDS011;42318;48.452;19.526;2023-04-30T18:12:05;2.40;;;1.30;;
56413;SDS011;42318;48.452;19.526;2023-04-30T18:19:36;3.28;;;1.42;;
56413;SDS011;42318;48.452;19.526;2023-04-30T18:27:13;2.13;;;1.30;;
56413;SDS011;42318;48.452;19.526;2023-04-30T18:34:44;1.85;;;1.30;;
56413;SDS011;42318;48.452;19.526;2023-04-30T18:42:14;2.03;;;1.13;;
56413;SDS011;42318;48.452;19.526;2023-04-30T18:49:45;1.75;;;1.30;;
56413;SDS011;42318;48.452;19.526;2023-04-30T18:57:16;1.20;;;0.90;;
56413;SDS011;42318;48.452;19.526;2023-04-30T19:04:47;2.45;;;1.25;;
56413;SDS011;42318;48.452;19.526;2023-04-30T19:12:19;2.47;;;1.73;;
56413;SDS011;42318;48.452;19.526;2023-04-30T19:19:50;2.17;;;1.15;;
56413;SDS011;42318;48.452;19.526;2023-04-30T19:27:22;1.80;;;1.20;;
56413;SDS011;42318;48.452;19.526;2023-04-30T19:34:52;2.33;;;1.60;;
56413;SDS011;42318;48.452;19.526;2023-04-30T19:42:23;2.50;;;1.30;;
56413;SDS011;42318;48.452;19.526;2023-04-30T19:49:54;2.33;;;1.45;;
56413;SDS011;42318;48.452;19.526;2023-04-30T19:57:26;1.52;;;1.30;;
56413;SDS011;42318;48.452;19.526;2023-04-30T20:04:57;2.30;;;1.40;;
56413;SDS011;42318;48.452;19.526;2023-04-30T20:12:28;1.50;;;1.10;;
56413;SDS011;42318;48.452;19.526;2023-04-30T20:19:59;1.80;;;1.30;;
56413;SDS011;42318;48.452;19.526;2023-04-30T20:27:29;2.47;;;1.30;;
56413;SDS011;42318;48.452;19.526;2023-04-30T20:35:00;4.05;;;1.45;;
56413;SDS011;42318;48.452;19.526;2023-04-30T20:42:32;2.25;;;1.45;;
56413;SDS011;42318;48.452;19.526;2023-04-30T20:50:03;2.70;;;1.50;;
56413;SDS011;42318;48.452;19.526;2023-04-30T20:57:35;2.07;;;1.27;;
56413;SDS011;42318;48.452;19.526;2023-04-30T21:05:06;1.40;;;1.05;;
56413;SDS011;42318;48.452;19.526;2023-04-30T21:12:37;1.55;;;1.10;;
56413;SDS011;42318;48.452;19.526;2023-04-30T21:20:08;2.40;;;1.45;;
56413;SDS011;42318;48.452;19.526;2023-04-30T21:27:40;1.63;;;1.10;;
56413;SDS011;42318;48.452;19.526;2023-04-30T21:35:11;1.55;;;0.90;;
56413;SDS011;42318;48.452;19.526;2023-04-30T21:42:43;1.15;;;0.90;;
56413;SDS011;42318;48.452;19.526;2023-04-30T21:50:13;2.00;;;1.65;;
56413;SDS011;42318;48.452;19.526;2023-04-30T21:57:44;2.50;;;1.33;;
56413;SDS011;42318;48.452;19.526;2023-04-30T22:05:18;1.25;;;1.00;;
56413;SDS011;42318;48.452;19.526;2023-04-30T22:12:50;1.20;;;1.00;;
56413;SDS011;42318;48.452;19.526;2023-04-30T22:20:21;1.20;;;1.10;;
56413;SDS011;42318;48.452;19.526;2023-04-30T22:27:52;2.65;;;1.52;;
56413;SDS011;42318;48.452;19.526;2023-04-30T22:35:22;1.48;;;0.98;;
56413;SDS011;42318;48.452;19.526;2023-04-30T22:42:53;2.00;;;1.33;;
56413;SDS011;42318;48.452;19.526;2023-04-30T22:50:24;2.13;;;1.10;;
56413;SDS011;42318;48.452;19.526;2023-04-30T22:57:55;1.23;;;1.00;;
56413;SDS011;42318;48.452;19.526;2023-04-30T23:05:29;1.92;;;1.30;;
56413;SDS011;42318;48.452;19.526;2023-04-30T23:13:00;2.13;;;1.30;;
56413;SDS011;42318;48.452;19.526;2023-04-30T23:20:30;1.80;;;1.13;;
56413;SDS011;42318;48.452;19.526;2023-04-30T23:28:01;1.98;;;1.30;;
56413;SDS011;42318;48.452;19.526;2023-04-30T23:35:33;2.50;;;1.23;;
56413;SDS011;42318;48.452;19.526;2023-04-30T23:43:04;1.75;;;1.30;;
56413;SDS011;42318;48.452;19.526;2023-04-30T23:50:35;1.88;;;1.15;;
56413;SDS011;42318;48.452;19.526;2023-04-30T23:58:07;1.63;;;1.00;;
